createdAt,value
2023-03-15T00:10:04.379Z,4.10
2023-03-15T00:12:33.771Z,3.50
2023-03-15T00:15:01.451Z,9.60
2023-03-15T00:17:28.376Z,7.00
2023-03-15T00:19:55.456Z,9.40
2023-03-15T00:22:22.651Z,5.00
2023-03-15T00:24:49.548Z,7.20
2023-03-15T00:27:16.467Z,6.70
2023-03-15T00:29:43.253Z,3.60
2023-03-15T00:32:10.483Z,6.00
2023-03-15T00:34:40.788Z,8.60
2023-03-15T00:37:08.142Z,6.90
2023-03-15T00:39:37.442Z,8.10
2023-03-15T00:42:04.450Z,8.10
2023-03-15T00:44:34.937Z,5.90
2023-03-15T00:47:02.648Z,7.90
2023-03-15T00:49:33.313Z,4.60
2023-03-15T00:52:01.941Z,8.20
2023-03-15T00:54:29.560Z,9.30
2023-03-15T00:56:56.783Z,5.90
2023-03-15T00:59:24.273Z,8.10
2023-03-15T01:01:51.767Z,6.80
2023-03-15T01:04:19.095Z,7.00
2023-03-15T01:06:46.749Z,5.70
2023-03-15T01:09:13.723Z,7.50
2023-03-15T01:11:41.360Z,4.70
2023-03-15T01:14:09.129Z,5.30
2023-03-15T01:16:40.528Z,7.20
2023-03-15T01:19:11.612Z,5.70
2023-03-15T01:21:38.805Z,7.00
2023-03-15T01:24:05.954Z,7.20
2023-03-15T01:26:33.709Z,7.00
2023-03-15T01:29:00.503Z,7.80
2023-03-15T01:31:29.802Z,8.00
2023-03-15T01:33:57.697Z,6.20
2023-03-15T01:36:25.298Z,7.10
2023-03-15T01:38:54.550Z,4.70
2023-03-15T01:41:26.715Z,7.40
2023-03-15T01:43:54.068Z,7.20
2023-03-15T01:46:26.441Z,11.20
2023-03-15T01:49:12.028Z,8.20
2023-03-15T01:51:46.397Z,7.60
2023-03-15T01:54:38.675Z,4.70
2023-03-15T01:57:26.729Z,7.10
2023-03-15T01:59:56.958Z,6.50
2023-03-15T02:02:24.223Z,9.10
2023-03-15T02:04:59.611Z,5.70
2023-03-15T02:07:27.515Z,6.90
2023-03-15T02:10:05.223Z,7.90
2023-03-15T02:12:38.843Z,5.70
2023-03-15T02:15:07.174Z,10.30
2023-03-15T02:17:42.759Z,8.90
2023-03-15T02:20:32.682Z,7.50
2023-03-15T02:23:07.849Z,5.60
2023-03-15T02:25:45.900Z,15.00
2023-03-15T02:28:14.367Z,13.50
2023-03-15T02:30:42.939Z,10.00
2023-03-15T02:33:15.532Z,7.30
2023-03-15T02:35:42.641Z,8.90
2023-03-15T02:38:12.436Z,4.20
2023-03-15T02:40:40.438Z,7.50
2023-03-15T02:43:18.546Z,7.50
2023-03-15T02:45:46.032Z,5.20
2023-03-15T02:48:13.270Z,8.20
2023-03-15T02:50:45.028Z,5.20
2023-03-15T02:53:12.503Z,8.40
2023-03-15T02:55:39.539Z,5.20
2023-03-15T02:58:06.759Z,9.60
2023-03-15T03:00:33.968Z,5.40
2023-03-15T03:03:01.678Z,7.10
2023-03-15T03:05:29.019Z,7.80
2023-03-15T03:07:56.419Z,7.50
2023-03-15T03:10:23.457Z,5.10
2023-03-15T03:12:53.171Z,4.30
2023-03-15T03:15:24.807Z,8.50
2023-03-15T03:17:54.028Z,8.60
2023-03-15T03:20:23.877Z,7.70
2023-03-15T03:22:55.532Z,5.70
2023-03-15T03:25:26.307Z,8.20
2023-03-15T03:27:56.721Z,5.60
2023-03-15T03:30:24.107Z,5.90
2023-03-15T03:32:51.643Z,10.20
2023-03-15T03:35:20.866Z,6.80
2023-03-15T03:37:47.814Z,10.10
2023-03-15T03:40:23.082Z,6.30
2023-03-15T03:42:50.015Z,5.50
2023-03-15T03:45:18.478Z,6.40
2023-03-15T03:47:51.434Z,6.60
2023-03-15T03:50:18.410Z,5.80
2023-03-15T03:52:46.174Z,17.80
2023-03-15T03:55:18.862Z,7.70
2023-03-15T03:57:45.798Z,7.10
2023-03-15T04:00:19.024Z,7.40
2023-03-15T04:02:48.952Z,6.10
2023-03-15T04:05:16.772Z,9.90
2023-03-15T04:07:45.156Z,9.30
2023-03-15T04:10:16.307Z,13.00
2023-03-15T04:12:46.219Z,13.70
2023-03-15T04:15:14.702Z,12.80
2023-03-15T04:17:42.561Z,10.50
2023-03-15T04:20:12.279Z,7.60
2023-03-15T04:22:49.075Z,6.00
2023-03-15T04:25:26.137Z,8.30
2023-03-15T04:28:10.213Z,9.30
2023-03-15T04:30:58.263Z,15.00
2023-03-15T04:33:37.469Z,9.70
2023-03-15T04:36:07.706Z,12.60
2023-03-15T04:38:47.840Z,7.10
2023-03-15T04:41:42.320Z,13.90
2023-03-15T04:44:34.937Z,10.50
2023-03-15T04:47:04.906Z,9.80
2023-03-15T04:49:46.994Z,14.40
2023-03-15T04:52:40.419Z,11.40
2023-03-15T04:55:31.304Z,11.00
2023-03-15T04:57:58.072Z,9.40
2023-03-15T05:00:48.376Z,17.10
2023-03-15T05:03:28.252Z,19.80
2023-03-15T05:09:04.437Z,10.90
2023-03-15T05:11:51.562Z,8.50
2023-03-15T05:14:35.806Z,16.50
2023-03-15T05:17:14.934Z,9.00
2023-03-15T05:19:41.983Z,9.10
2023-03-15T05:22:27.873Z,7.50
2023-03-15T05:25:14.730Z,7.80
2023-03-15T05:28:07.771Z,15.70
2023-03-15T05:31:01.972Z,7.60
2023-03-15T05:33:54.164Z,14.80
2023-03-15T05:36:36.631Z,9.70
2023-03-15T05:39:16.259Z,13.30
2023-03-15T05:42:06.239Z,10.00
2023-03-15T05:44:49.659Z,10.80
2023-03-15T05:47:36.855Z,7.90
2023-03-15T05:50:17.116Z,11.20
2023-03-15T05:52:59.417Z,8.20
2023-03-15T05:55:43.165Z,13.00
2023-03-15T05:58:12.148Z,8.60
2023-03-15T06:01:03.874Z,6.10
2023-03-15T06:03:58.532Z,10.80
2023-03-15T06:06:26.660Z,12.40
2023-03-15T06:08:53.588Z,12.90
2023-03-15T06:11:21.456Z,9.10
2023-03-15T06:13:48.917Z,14.00
2023-03-15T06:16:25.783Z,13.90
2023-03-15T06:18:55.809Z,13.70
2023-03-15T06:21:23.059Z,9.40
2023-03-15T06:23:57.071Z,10.80
2023-03-15T06:26:23.876Z,8.10
2023-03-15T06:28:53.325Z,14.20
2023-03-15T06:31:23.030Z,16.10
2023-03-15T06:33:55.063Z,13.50
2023-03-15T06:36:24.598Z,13.70
2023-03-15T06:38:54.108Z,13.20
2023-03-15T06:41:21.261Z,11.60
2023-03-15T06:43:51.582Z,15.30
2023-03-15T06:46:18.820Z,11.80
2023-03-15T06:48:45.705Z,11.20
2023-03-15T06:51:15.798Z,11.30
2023-03-15T06:53:43.363Z,13.20
2023-03-15T06:56:10.616Z,9.50
2023-03-15T06:58:38.708Z,13.40
2023-03-15T07:01:07.434Z,13.60
2023-03-15T07:03:35.338Z,13.90
2023-03-15T07:06:02.512Z,12.60
2023-03-15T07:08:30.226Z,13.10
2023-03-15T07:10:57.339Z,13.70
2023-03-15T07:13:24.256Z,12.80
2023-03-15T07:56:27.083Z,11.90
2023-03-15T07:58:54.044Z,12.90
2023-03-15T08:01:21.101Z,13.70
2023-03-15T08:03:48.400Z,12.90
2023-03-15T08:06:17.197Z,14.00
2023-03-15T08:08:44.385Z,11.70
2023-03-15T08:11:11.228Z,13.60
2023-03-15T08:13:41.248Z,13.10
2023-03-15T08:16:08.980Z,12.30
2023-03-15T08:18:46.208Z,12.10
2023-03-15T08:21:13.494Z,14.50
2023-03-15T08:23:40.285Z,15.00
2023-03-15T08:30:20.615Z,17.40
2023-03-15T08:32:48.657Z,15.40
2023-03-15T08:35:16.252Z,17.00
2023-03-15T08:37:47.279Z,18.00
2023-03-15T08:40:15.402Z,18.40
2023-03-15T08:42:42.152Z,16.40
2023-03-15T08:45:10.886Z,17.50
2023-03-15T08:47:54.170Z,17.10
2023-03-15T08:50:25.856Z,15.80
2023-03-15T08:52:52.654Z,14.30
2023-03-15T08:55:19.494Z,14.60
2023-03-15T08:57:46.282Z,15.50
2023-03-15T09:00:19.607Z,14.30
2023-03-15T09:02:51.442Z,16.90
2023-03-15T09:05:18.334Z,14.40
2023-03-15T09:07:45.152Z,17.40
2023-03-15T09:10:17.457Z,18.70
2023-03-15T09:12:46.306Z,19.70
2023-03-15T09:15:13.221Z,21.10
2023-03-15T09:17:42.835Z,22.20
2023-03-15T09:20:13.716Z,15.80
2023-03-15T09:22:44.333Z,15.70
2023-03-15T09:25:11.415Z,18.40
2023-03-15T09:27:41.499Z,16.60
2023-03-15T09:30:15.632Z,15.00
2023-03-15T09:32:43.720Z,14.50
2023-03-15T09:35:13.623Z,20.10
2023-03-15T09:37:41.985Z,13.20
2023-03-15T09:40:23.894Z,14.90
2023-03-15T09:43:03.298Z,14.10
2023-03-15T09:45:52.295Z,13.30
2023-03-15T09:48:45.865Z,16.70
2023-03-15T09:51:38.928Z,14.90
2023-03-15T09:54:31.752Z,17.70
2023-03-15T09:57:02.940Z,15.30
2023-03-15T09:59:35.791Z,15.60
2023-03-15T10:02:12.723Z,14.20
2023-03-15T10:04:41.758Z,15.20
2023-03-15T10:07:13.304Z,22.20
2023-03-15T10:09:40.054Z,17.70
2023-03-15T10:12:15.565Z,18.00
2023-03-15T10:15:21.669Z,16.20
2023-03-15T10:17:59.045Z,14.60
2023-03-15T10:20:36.278Z,14.70
2023-03-15T10:23:16.186Z,13.20
2023-03-15T10:25:47.325Z,14.50
2023-03-15T10:28:27.241Z,15.00
2023-03-15T10:31:00.205Z,13.00
2023-03-15T10:33:34.820Z,12.50
2023-03-15T10:36:10.897Z,12.10
2023-03-15T10:38:39.002Z,24.00
2023-03-15T10:41:06.486Z,69.50
2023-03-15T10:43:36.369Z,15.00
2023-03-15T10:46:22.675Z,13.40
2023-03-15T10:48:58.668Z,12.80
2023-03-15T10:51:28.764Z,15.50
2023-03-15T10:53:59.254Z,15.40
2023-03-15T10:56:28.231Z,14.20
2023-03-15T10:59:11.606Z,17.20
2023-03-15T11:01:39.627Z,15.30
2023-03-15T11:04:07.242Z,16.70
2023-03-15T11:06:45.887Z,12.40
2023-03-15T11:09:17.587Z,14.90
2023-03-15T11:11:55.152Z,16.00
2023-03-15T11:14:26.704Z,14.00
2023-03-15T11:16:55.708Z,13.60
2023-03-15T11:19:28.489Z,11.30
2023-03-15T11:21:57.332Z,13.20
2023-03-15T11:24:27.985Z,12.90
2023-03-15T11:26:55.631Z,12.20
2023-03-15T11:29:28.811Z,12.80
2023-03-15T11:31:55.777Z,20.90
2023-03-15T11:34:28.839Z,16.30
2023-03-15T11:37:07.535Z,16.70
2023-03-15T11:39:44.645Z,21.60
2023-03-15T11:44:49.182Z,16.00
2023-03-15T11:47:17.870Z,14.80
2023-03-15T11:49:55.143Z,18.50
2023-03-15T11:52:23.227Z,16.10
2023-03-15T11:54:57.836Z,14.10
2023-03-15T11:57:27.735Z,18.50
2023-03-15T12:00:21.716Z,13.90
2023-03-15T12:02:50.994Z,14.90
2023-03-15T12:05:58.882Z,12.30
2023-03-15T12:08:34.135Z,14.50
2023-03-15T12:11:01.282Z,11.00
2023-03-15T12:13:30.022Z,10.60
2023-03-15T12:28:10.083Z,9.30
2023-03-15T12:30:42.872Z,9.00
2023-03-15T12:33:16.895Z,11.90
2023-03-15T12:35:45.009Z,10.90
2023-03-15T12:38:20.867Z,9.20
2023-03-15T12:44:02.554Z,7.70
2023-03-15T12:46:41.484Z,10.50
2023-03-15T12:49:18.722Z,10.90
2023-03-15T12:52:00.555Z,8.60
2023-03-15T12:54:41.850Z,10.60
2023-03-15T12:57:22.966Z,10.10
2023-03-15T12:59:55.750Z,10.20
2023-03-15T13:02:43.812Z,9.10
2023-03-15T13:05:26.460Z,10.10
2023-03-15T13:08:22.159Z,10.20
2023-03-15T13:11:29.681Z,10.90
2023-03-15T13:14:07.585Z,10.40
2023-03-15T13:16:48.762Z,9.00
2023-03-15T13:19:19.393Z,10.40
2023-03-15T13:22:08.149Z,11.20
2023-03-15T13:25:15.948Z,9.30
2023-03-15T13:30:32.791Z,13.10
2023-03-15T13:33:15.469Z,10.90
2023-03-15T13:36:01.150Z,10.20
2023-03-15T13:38:43.745Z,10.20
2023-03-15T13:41:26.406Z,13.80
2023-03-15T13:43:58.092Z,14.00
2023-03-15T13:46:27.737Z,11.90
2023-03-15T13:48:57.791Z,11.70
2023-03-15T13:51:36.055Z,12.60
2023-03-15T13:54:17.473Z,11.50
2023-03-15T13:57:09.143Z,11.50
2023-03-15T13:59:44.457Z,8.90
2023-03-15T14:02:20.111Z,9.30
2023-03-15T14:04:53.767Z,8.80
2023-03-15T14:07:30.384Z,7.80
2023-03-15T14:10:24.221Z,8.70
2023-03-15T14:12:57.450Z,8.50
2023-03-15T14:15:30.544Z,10.10
2023-03-15T14:18:02.420Z,7.80
2023-03-15T14:20:36.927Z,7.70
2023-03-15T14:23:06.148Z,8.40
2023-03-15T14:25:35.427Z,8.30
2023-03-15T14:28:04.754Z,9.50
2023-03-15T14:30:36.180Z,8.70
2023-03-15T14:33:05.354Z,8.10
2023-03-15T14:35:36.445Z,11.40
2023-03-15T14:38:24.527Z,7.70
2023-03-15T14:40:53.516Z,8.50
2023-03-15T14:43:21.956Z,7.80
2023-03-15T14:45:50.723Z,10.70
2023-03-15T14:48:27.782Z,7.20
2023-03-15T14:50:56.599Z,7.20
2023-03-15T14:53:26.307Z,7.10
2023-03-15T14:55:56.428Z,7.40
2023-03-15T14:58:25.118Z,9.70
2023-03-15T15:00:59.988Z,7.20
2023-03-15T15:03:59.157Z,6.80
2023-03-15T15:06:28.401Z,6.90
2023-03-15T15:08:58.865Z,8.00
2023-03-15T15:11:27.360Z,7.60
2023-03-15T15:13:56.745Z,7.80
2023-03-15T15:16:25.803Z,9.00
2023-03-15T15:18:54.468Z,8.00
2023-03-15T15:21:33.855Z,9.90
2023-03-15T15:24:03.384Z,10.00
2023-03-15T15:26:31.977Z,8.00
2023-03-15T15:29:01.033Z,8.90
2023-03-15T15:31:29.911Z,8.30
2023-03-15T15:34:04.024Z,8.00
2023-03-15T15:36:34.691Z,8.60
2023-03-15T15:39:06.362Z,8.30
2023-03-15T15:41:35.566Z,9.10
2023-03-15T15:44:16.042Z,7.70
2023-03-15T15:46:45.222Z,9.00
2023-03-15T15:49:13.694Z,12.10
2023-03-15T15:51:45.975Z,11.70
2023-03-15T15:54:18.540Z,10.30
2023-03-15T15:56:51.927Z,9.80
2023-03-15T15:59:20.079Z,9.90
2023-03-15T16:02:03.437Z,9.10
2023-03-15T16:04:33.298Z,9.50
2023-03-15T16:07:02.631Z,9.30
2023-03-15T16:09:32.073Z,9.40
2023-03-15T16:12:03.007Z,13.40
2023-03-15T16:14:33.837Z,9.00
2023-03-15T16:17:02.210Z,12.10
2023-03-15T16:19:31.832Z,11.10
2023-03-15T16:22:00.258Z,12.40
2023-03-15T16:24:31.558Z,11.70
2023-03-15T16:27:04.341Z,14.30
2023-03-15T16:29:37.474Z,12.30
2023-03-15T16:32:16.931Z,14.00
2023-03-15T16:34:52.510Z,13.00
2023-03-15T16:37:25.713Z,13.90
2023-03-15T16:39:56.138Z,15.70
2023-03-15T16:42:25.765Z,15.10
2023-03-15T16:44:53.849Z,13.80
2023-03-15T16:47:22.318Z,16.20
2023-03-15T16:49:50.467Z,15.10
2023-03-15T16:52:18.742Z,16.00
2023-03-15T16:54:48.826Z,16.60
2023-03-15T16:57:22.027Z,14.00
2023-03-15T16:59:51.464Z,19.30
2023-03-15T17:02:25.193Z,16.80
2023-03-15T17:04:54.168Z,14.40
2023-03-15T17:07:25.958Z,16.70
2023-03-15T17:09:54.499Z,16.60
2023-03-15T17:12:26.779Z,16.30
2023-03-15T17:14:57.665Z,15.10
2023-03-15T17:17:26.865Z,18.30
2023-03-15T17:20:11.281Z,18.10
2023-03-15T17:22:43.548Z,15.30
2023-03-15T17:25:12.038Z,14.80
2023-03-15T17:27:41.830Z,14.00
2023-03-15T17:30:17.854Z,13.40
2023-03-15T17:32:47.055Z,16.20
2023-03-15T17:35:16.287Z,16.60
2023-03-15T17:37:45.073Z,15.70
2023-03-15T17:40:24.024Z,14.80
2023-03-15T17:42:52.765Z,15.10
2023-03-15T17:45:32.024Z,17.90
2023-03-15T17:48:00.917Z,17.30
2023-03-15T17:50:31.141Z,16.80
2023-03-15T17:53:05.209Z,17.50
2023-03-15T17:55:36.289Z,20.70
2023-03-15T17:58:11.058Z,20.70
2023-03-15T18:00:39.490Z,17.60
2023-03-15T18:03:09.473Z,15.70
2023-03-15T18:05:38.412Z,17.30
2023-03-15T18:08:08.222Z,15.50
2023-03-15T18:10:38.451Z,17.90
2023-03-15T18:13:06.826Z,17.40
2023-03-15T18:15:37.054Z,16.20
2023-03-15T18:18:06.464Z,18.20
2023-03-15T18:20:35.349Z,26.00
2023-03-15T18:23:07.169Z,18.00
2023-03-15T18:25:36.103Z,16.60
2023-03-15T18:28:04.684Z,18.10
2023-03-15T18:30:32.953Z,21.80
2023-03-15T18:33:01.816Z,19.80
2023-03-15T18:35:34.553Z,17.50
2023-03-15T18:38:04.348Z,20.40
2023-03-15T18:40:33.951Z,20.90
2023-03-15T18:43:04.320Z,16.90
2023-03-15T18:45:34.606Z,18.30
2023-03-15T18:48:02.697Z,17.70
2023-03-15T18:50:31.766Z,16.60
2023-03-15T18:53:00.199Z,18.40
2023-03-15T18:55:28.543Z,19.20
2023-03-15T18:57:57.604Z,18.90
2023-03-15T19:00:36.355Z,19.20
2023-03-15T19:03:05.956Z,17.70
2023-03-15T19:05:36.943Z,18.10
2023-03-15T19:08:05.674Z,18.40
2023-03-15T19:10:34.160Z,20.00
2023-03-15T19:13:04.447Z,17.90
2023-03-15T19:15:33.546Z,18.70
2023-03-15T19:18:02.271Z,19.90
2023-03-15T19:20:32.436Z,21.30
2023-03-15T19:23:01.168Z,17.30
2023-03-15T19:25:29.855Z,19.40
2023-03-15T19:28:02.849Z,19.00
2023-03-15T19:30:32.705Z,18.90
2023-03-15T19:33:01.516Z,23.60
2023-03-15T19:35:31.446Z,23.50
2023-03-15T19:38:01.067Z,21.40
2023-03-15T19:40:40.445Z,20.80
2023-03-15T19:43:10.327Z,20.50
2023-03-15T19:45:38.420Z,18.70
2023-03-15T19:48:08.159Z,21.10
2023-03-15T19:50:36.510Z,22.10
2023-03-15T19:53:11.991Z,20.40
2023-03-15T19:55:40.312Z,24.40
2023-03-15T19:58:08.531Z,19.00
2023-03-15T20:00:38.809Z,20.50
2023-03-15T20:03:07.090Z,20.00
2023-03-15T20:05:38.268Z,19.40
2023-03-15T20:08:08.598Z,20.00
2023-03-15T20:10:36.730Z,22.40
2023-03-15T20:13:05.928Z,20.80
2023-03-15T20:15:35.031Z,20.40
2023-03-15T20:18:08.233Z,18.60
2023-03-15T20:20:36.499Z,23.10
2023-03-15T20:23:04.530Z,23.10
2023-03-15T20:25:35.933Z,21.40
2023-03-15T20:28:04.810Z,19.60
2023-03-15T20:30:32.992Z,19.50
2023-03-15T20:33:01.554Z,18.50
2023-03-15T20:35:29.984Z,19.00
2023-03-15T20:38:06.774Z,19.50
2023-03-15T20:40:39.212Z,28.90
2023-03-15T20:45:42.406Z,15.50
2023-03-15T20:48:11.300Z,18.50
2023-03-15T20:50:40.198Z,20.70
2023-03-15T20:53:08.572Z,20.70
2023-03-15T20:55:41.281Z,24.30
2023-03-15T20:58:10.137Z,23.90
2023-03-15T21:00:44.587Z,21.60
2023-03-15T21:03:14.730Z,14.80
2023-03-15T21:05:44.700Z,17.70
2023-03-15T21:10:47.186Z,13.70
2023-03-15T21:13:15.256Z,25.00
2023-03-15T21:15:49.727Z,19.90
2023-03-15T21:18:20.008Z,26.70
2023-03-15T21:20:55.857Z,19.50
2023-03-15T21:23:28.018Z,22.30
2023-03-15T21:25:57.768Z,14.30
2023-03-15T21:28:32.864Z,20.70
2023-03-15T21:31:02.030Z,21.80
2023-03-15T21:33:31.118Z,12.60
2023-03-15T21:36:00.521Z,19.20
2023-03-15T21:38:31.624Z,21.10
2023-03-15T21:41:01.151Z,20.60
2023-03-15T21:43:31.943Z,24.90
2023-03-15T21:46:01.606Z,21.40
2023-03-15T21:48:37.077Z,16.20
2023-03-15T21:51:06.207Z,18.70
2023-03-15T21:53:36.220Z,24.10
2023-03-15T21:56:05.926Z,20.10
2023-03-15T21:58:34.405Z,12.80
2023-03-15T22:01:04.939Z,21.30
2023-03-15T22:03:34.144Z,19.40
2023-03-15T22:06:02.519Z,21.00
2023-03-15T22:08:33.777Z,18.50
2023-03-15T22:11:02.150Z,12.30
2023-03-15T22:13:30.878Z,21.90
2023-03-15T22:15:59.740Z,21.00
2023-03-15T22:18:28.957Z,21.00
2023-03-15T22:20:57.808Z,17.80
2023-03-15T22:23:26.899Z,18.90
2023-03-15T22:25:55.689Z,21.10
2023-03-15T22:28:27.452Z,20.60
2023-03-15T22:30:55.973Z,24.30
2023-03-15T22:33:25.850Z,14.50
2023-03-15T22:35:58.276Z,23.80
2023-03-15T22:38:37.726Z,17.00
2023-03-15T22:41:08.704Z,24.10
2023-03-15T22:43:37.187Z,23.30
2023-03-15T22:46:06.493Z,23.30
2023-03-15T22:48:35.586Z,25.70
2023-03-15T22:51:10.011Z,22.20
2023-03-15T22:53:39.101Z,25.00
2023-03-15T22:56:07.605Z,11.40
2023-03-15T22:58:36.582Z,23.90
2023-03-15T23:01:05.440Z,21.10
2023-03-15T23:03:34.415Z,23.20
2023-03-15T23:06:02.695Z,19.60
2023-03-15T23:08:31.561Z,22.80
2023-03-15T23:11:00.323Z,22.40
2023-03-15T23:13:28.708Z,23.10
2023-03-15T23:16:04.294Z,25.20
2023-03-15T23:18:34.414Z,16.40
2023-03-15T23:21:07.063Z,25.40
2023-03-15T23:23:35.948Z,21.10
2023-03-15T23:26:04.122Z,23.00
2023-03-15T23:28:36.691Z,24.40
2023-03-15T23:31:05.940Z,24.50
2023-03-15T23:33:34.990Z,22.70
2023-03-15T23:36:06.047Z,23.30
2023-03-15T23:38:36.057Z,21.70
2023-03-15T23:41:09.475Z,14.90
2023-03-15T23:43:38.508Z,20.90
2023-03-15T23:46:06.817Z,19.00
2023-03-15T23:48:37.354Z,19.90
2023-03-15T23:51:06.038Z,19.50
2023-03-15T23:53:36.157Z,21.20
2023-03-15T23:56:04.950Z,21.20
2023-03-15T23:58:33.153Z,19.30
